sensor_id;sensor_type;location;lat;lon;timestamp;P1;durP1;ratioP1;P2;durP2;ratioP2
64674;SDS011;51090;51.512;11.332;2023-02-19T00:01:17;15.23;;;6.63;;
64674;SDS011;51090;51.512;11.332;2023-02-19T00:03:50;14.20;;;6.50;;
64674;SDS011;51090;51.512;11.332;2023-02-19T00:06:19;13.57;;;6.22;;
64674;SDS011;51090;51.512;11.332;2023-02-19T00:08:47;11.52;;;5.70;;
64674;SDS011;51090;51.512;11.332;2023-02-19T00:11:15;14.55;;;6.03;;
64674;SDS011;51090;51.512;11.332;2023-02-19T00:13:47;14.02;;;5.28;;
64674;SDS011;51090;51.512;11.332;2023-02-19T00:21:25;14.57;;;5.63;;
64674;SDS011;51090;51.512;11.332;2023-02-19T00:23:52;12.65;;;5.30;;
64674;SDS011;51090;51.512;11.332;2023-02-19T00:26:20;12.88;;;5.60;;
64674;SDS011;51090;51.512;11.332;2023-02-19T00:28:47;12.38;;;5.85;;
64674;SDS011;51090;51.512;11.332;2023-02-19T00:33:45;14.82;;;5.75;;
64674;SDS011;51090;51.512;11.332;2023-02-19T00:36:13;11.35;;;5.38;;
64674;SDS011;51090;51.512;11.332;2023-02-19T00:38:40;14.48;;;5.95;;
64674;SDS011;51090;51.512;11.332;2023-02-19T00:41:08;12.90;;;5.80;;
64674;SDS011;51090;51.512;11.332;2023-02-19T00:43:47;12.77;;;5.05;;
64674;SDS011;51090;51.512;11.332;2023-02-19T00:46:23;12.93;;;5.30;;
64674;SDS011;51090;51.512;11.332;2023-02-19T00:48:52;13.60;;;5.05;;
64674;SDS011;51090;51.512;11.332;2023-02-19T00:51:19;14.90;;;5.75;;
64674;SDS011;51090;51.512;11.332;2023-02-19T00:53:47;15.35;;;5.93;;
64674;SDS011;51090;51.512;11.332;2023-02-19T00:56:13;11.88;;;5.07;;
64674;SDS011;51090;51.512;11.332;2023-02-19T00:58:39;11.15;;;5.10;;
64674;SDS011;51090;51.512;11.332;2023-02-19T01:01:05;11.60;;;4.80;;
64674;SDS011;51090;51.512;11.332;2023-02-19T01:03:35;14.00;;;5.38;;
64674;SDS011;51090;51.512;11.332;2023-02-19T01:06:02;11.52;;;4.93;;
64674;SDS011;51090;51.512;11.332;2023-02-19T01:08:29;11.60;;;5.20;;
64674;SDS011;51090;51.512;11.332;2023-02-19T01:10:55;11.90;;;5.07;;
64674;SDS011;51090;51.512;11.332;2023-02-19T01:13:22;11.23;;;4.82;;
64674;SDS011;51090;51.512;11.332;2023-02-19T01:15:47;10.82;;;4.82;;
64674;SDS011;51090;51.512;11.332;2023-02-19T01:18:13;10.13;;;4.80;;
64674;SDS011;51090;51.512;11.332;2023-02-19T01:20:40;11.68;;;4.72;;
64674;SDS011;51090;51.512;11.332;2023-02-19T01:23:08;10.20;;;4.68;;
64674;SDS011;51090;51.512;11.332;2023-02-19T01:25:37;9.65;;;4.78;;
64674;SDS011;51090;51.512;11.332;2023-02-19T01:28:04;12.00;;;4.78;;
64674;SDS011;51090;51.512;11.332;2023-02-19T01:30:32;10.68;;;4.43;;
64674;SDS011;51090;51.512;11.332;2023-02-19T01:33:06;11.87;;;6.00;;
64674;SDS011;51090;51.512;11.332;2023-02-19T01:35:32;11.25;;;4.28;;
64674;SDS011;51090;51.512;11.332;2023-02-19T01:38:02;11.57;;;4.97;;
64674;SDS011;51090;51.512;11.332;2023-02-19T01:40:28;11.07;;;4.35;;
64674;SDS011;51090;51.512;11.332;2023-02-19T01:42:54;10.88;;;4.75;;
64674;SDS011;51090;51.512;11.332;2023-02-19T01:48:06;9.75;;;4.07;;
64674;SDS011;51090;51.512;11.332;2023-02-19T01:50:49;9.43;;;4.32;;
64674;SDS011;51090;51.512;11.332;2023-02-19T01:53:28;9.70;;;4.60;;
64674;SDS011;51090;51.512;11.332;2023-02-19T01:55:58;10.52;;;4.50;;
64674;SDS011;51090;51.512;11.332;2023-02-19T01:58:25;9.82;;;4.25;;
64674;SDS011;51090;51.512;11.332;2023-02-19T02:00:55;10.38;;;4.85;;
64674;SDS011;51090;51.512;11.332;2023-02-19T02:03:21;9.68;;;4.55;;
64674;SDS011;51090;51.512;11.332;2023-02-19T02:05:58;10.82;;;4.65;;
64674;SDS011;51090;51.512;11.332;2023-02-19T02:08:33;13.10;;;5.93;;
64674;SDS011;51090;51.512;11.332;2023-02-19T02:11:17;13.80;;;5.30;;
64674;SDS011;51090;51.512;11.332;2023-02-19T02:13:45;12.50;;;5.18;;
64674;SDS011;51090;51.512;11.332;2023-02-19T02:16:29;12.55;;;5.20;;
64674;SDS011;51090;51.512;11.332;2023-02-19T02:28:14;8.52;;;3.10;;
64674;SDS011;51090;51.512;11.332;2023-02-19T02:31:06;6.93;;;2.53;;
64674;SDS011;51090;51.512;11.332;2023-02-19T02:33:43;7.80;;;3.20;;
64674;SDS011;51090;51.512;11.332;2023-02-19T02:38:57;7.43;;;3.13;;
64674;SDS011;51090;51.512;11.332;2023-02-19T02:41:27;9.25;;;3.00;;
64674;SDS011;51090;51.512;11.332;2023-02-19T02:43:53;5.72;;;2.55;;
64674;SDS011;51090;51.512;11.332;2023-02-19T02:46:22;4.45;;;1.92;;
64674;SDS011;51090;51.512;11.332;2023-02-19T02:48:57;5.68;;;2.33;;
64674;SDS011;51090;51.512;11.332;2023-02-19T02:51:40;6.15;;;1.98;;
64674;SDS011;51090;51.512;11.332;2023-02-19T02:54:13;7.88;;;2.78;;
64674;SDS011;51090;51.512;11.332;2023-02-19T02:57:11;6.65;;;2.65;;
64674;SDS011;51090;51.512;11.332;2023-02-19T02:59:39;5.70;;;2.38;;
64674;SDS011;51090;51.512;11.332;2023-02-19T03:02:11;6.55;;;2.50;;
64674;SDS011;51090;51.512;11.332;2023-02-19T03:07:56;8.05;;;2.95;;
64674;SDS011;51090;51.512;11.332;2023-02-19T03:10:39;6.75;;;2.55;;
64674;SDS011;51090;51.512;11.332;2023-02-19T03:13:47;4.03;;;1.83;;
64674;SDS011;51090;51.512;11.332;2023-02-19T03:16:38;8.02;;;3.03;;
64674;SDS011;51090;51.512;11.332;2023-02-19T03:19:27;5.68;;;2.17;;
64674;SDS011;51090;51.512;11.332;2023-02-19T03:22:01;7.55;;;2.33;;
64674;SDS011;51090;51.512;11.332;2023-02-19T03:24:44;7.53;;;2.92;;
64674;SDS011;51090;51.512;11.332;2023-02-19T03:27:40;6.25;;;2.45;;
64674;SDS011;51090;51.512;11.332;2023-02-19T03:30:12;4.93;;;2.17;;
64674;SDS011;51090;51.512;11.332;2023-02-19T03:32:47;4.88;;;2.38;;
64674;SDS011;51090;51.512;11.332;2023-02-19T03:35:40;4.65;;;2.15;;
64674;SDS011;51090;51.512;11.332;2023-02-19T03:44:32;1.90;;;0.85;;
64674;SDS011;51090;51.512;11.332;2023-02-19T03:49:42;1.23;;;0.60;;
64674;SDS011;51090;51.512;11.332;2023-02-19T03:55:24;1.30;;;0.50;;
64674;SDS011;51090;51.512;11.332;2023-02-19T04:03:19;0.63;;;0.30;;
64674;SDS011;51090;51.512;11.332;2023-02-19T04:05:54;3.35;;;0.50;;
64674;SDS011;51090;51.512;11.332;2023-02-19T04:08:26;0.60;;;0.28;;
64674;SDS011;51090;51.512;11.332;2023-02-19T04:10:53;0.20;;;0.10;;
64674;SDS011;51090;51.512;11.332;2023-02-19T04:13:23;1.05;;;0.20;;
64674;SDS011;51090;51.512;11.332;2023-02-19T04:15:55;1.05;;;0.10;;
64674;SDS011;51090;51.512;11.332;2023-02-19T04:18:31;3.30;;;0.20;;
64674;SDS011;51090;51.512;11.332;2023-02-19T04:21:02;0.80;;;0.00;;
64674;SDS011;51090;51.512;11.332;2023-02-19T04:23:32;0.22;;;0.08;;
64674;SDS011;51090;51.512;11.332;2023-02-19T04:26:06;0.32;;;0.05;;
64674;SDS011;51090;51.512;11.332;2023-02-19T04:28:33;1.27;;;0.10;;
64674;SDS011;51090;51.512;11.332;2023-02-19T04:31:00;0.75;;;0.03;;
64674;SDS011;51090;51.512;11.332;2023-02-19T04:33:26;0.00;;;0.00;;
64674;SDS011;51090;51.512;11.332;2023-02-19T04:35:52;0.00;;;0.00;;
64674;SDS011;51090;51.512;11.332;2023-02-19T04:38:17;0.08;;;0.00;;
64674;SDS011;51090;51.512;11.332;2023-02-19T04:40:43;0.00;;;0.00;;
64674;SDS011;51090;51.512;11.332;2023-02-19T04:43:09;0.08;;;0.00;;
64674;SDS011;51090;51.512;11.332;2023-02-19T04:45:38;0.00;;;0.00;;
64674;SDS011;51090;51.512;11.332;2023-02-19T04:48:04;0.10;;;0.10;;
64674;SDS011;51090;51.512;11.332;2023-02-19T04:50:29;0.00;;;0.00;;
64674;SDS011;51090;51.512;11.332;2023-02-19T04:52:55;0.10;;;0.00;;
64674;SDS011;51090;51.512;11.332;2023-02-19T04:55:21;0.25;;;0.00;;
64674;SDS011;51090;51.512;11.332;2023-02-19T04:57:47;0.10;;;0.10;;
64674;SDS011;51090;51.512;11.332;2023-02-19T05:00:13;0.03;;;0.00;;
64674;SDS011;51090;51.512;11.332;2023-02-19T05:02:39;2.17;;;0.00;;
64674;SDS011;51090;51.512;11.332;2023-02-19T05:05:05;0.00;;;0.00;;
64674;SDS011;51090;51.512;11.332;2023-02-19T05:07:30;0.00;;;0.00;;
64674;SDS011;51090;51.512;11.332;2023-02-19T05:09:57;0.57;;;0.05;;
64674;SDS011;51090;51.512;11.332;2023-02-19T05:12:23;0.90;;;0.10;;
64674;SDS011;51090;51.512;11.332;2023-02-19T05:14:50;0.20;;;0.20;;
64674;SDS011;51090;51.512;11.332;2023-02-19T05:17:16;0.20;;;0.10;;
64674;SDS011;51090;51.512;11.332;2023-02-19T05:19:42;0.30;;;0.10;;
64674;SDS011;51090;51.512;11.332;2023-02-19T05:22:07;0.05;;;0.00;;
64674;SDS011;51090;51.512;11.332;2023-02-19T05:24:33;0.22;;;0.00;;
64674;SDS011;51090;51.512;11.332;2023-02-19T05:26:59;1.20;;;0.30;;
64674;SDS011;51090;51.512;11.332;2023-02-19T05:29:24;0.90;;;0.40;;
64674;SDS011;51090;51.512;11.332;2023-02-19T05:31:50;3.95;;;0.60;;
64674;SDS011;51090;51.512;11.332;2023-02-19T05:34:16;1.88;;;0.52;;
64674;SDS011;51090;51.512;11.332;2023-02-19T05:36:41;1.15;;;0.50;;
64674;SDS011;51090;51.512;11.332;2023-02-19T05:39:08;0.70;;;0.47;;
64674;SDS011;51090;51.512;11.332;2023-02-19T05:41:36;1.52;;;0.45;;
64674;SDS011;51090;51.512;11.332;2023-02-19T05:44:02;0.88;;;0.40;;
64674;SDS011;51090;51.512;11.332;2023-02-19T05:46:28;0.45;;;0.25;;
64674;SDS011;51090;51.512;11.332;2023-02-19T05:48:54;0.65;;;0.40;;
64674;SDS011;51090;51.512;11.332;2023-02-19T05:51:22;1.27;;;0.40;;
64674;SDS011;51090;51.512;11.332;2023-02-19T05:53:50;1.00;;;0.40;;
64674;SDS011;51090;51.512;11.332;2023-02-19T05:56:28;0.70;;;0.40;;
64674;SDS011;51090;51.512;11.332;2023-02-19T05:59:00;1.73;;;0.50;;
64674;SDS011;51090;51.512;11.332;2023-02-19T06:01:41;1.17;;;0.50;;
64674;SDS011;51090;51.512;11.332;2023-02-19T06:04:09;1.30;;;0.70;;
64674;SDS011;51090;51.512;11.332;2023-02-19T06:06:35;1.58;;;0.70;;
64674;SDS011;51090;51.512;11.332;2023-02-19T06:09:01;2.75;;;1.10;;
64674;SDS011;51090;51.512;11.332;2023-02-19T06:11:28;1.73;;;0.80;;
64674;SDS011;51090;51.512;11.332;2023-02-19T06:13:54;17.90;;;1.15;;
64674;SDS011;51090;51.512;11.332;2023-02-19T06:16:20;3.60;;;0.90;;
64674;SDS011;51090;51.512;11.332;2023-02-19T06:18:46;6.03;;;1.35;;
64674;SDS011;51090;51.512;11.332;2023-02-19T06:21:13;4.95;;;1.13;;
64674;SDS011;51090;51.512;11.332;2023-02-19T06:23:40;2.70;;;1.10;;
64674;SDS011;51090;51.512;11.332;2023-02-19T06:26:13;3.38;;;1.10;;
64674;SDS011;51090;51.512;11.332;2023-02-19T06:28:46;5.60;;;1.25;;
64674;SDS011;51090;51.512;11.332;2023-02-19T06:31:15;6.05;;;1.48;;
64674;SDS011;51090;51.512;11.332;2023-02-19T06:33:42;4.68;;;1.20;;
64674;SDS011;51090;51.512;11.332;2023-02-19T06:36:12;2.80;;;1.20;;
64674;SDS011;51090;51.512;11.332;2023-02-19T06:38:40;3.63;;;1.27;;
64674;SDS011;51090;51.512;11.332;2023-02-19T06:41:06;2.95;;;1.30;;
64674;SDS011;51090;51.512;11.332;2023-02-19T06:43:33;5.25;;;1.38;;
64674;SDS011;51090;51.512;11.332;2023-02-19T06:46:00;4.97;;;1.40;;
64674;SDS011;51090;51.512;11.332;2023-02-19T06:48:27;4.18;;;1.70;;
64674;SDS011;51090;51.512;11.332;2023-02-19T06:50:54;6.88;;;2.00;;
64674;SDS011;51090;51.512;11.332;2023-02-19T06:53:20;5.90;;;2.08;;
64674;SDS011;51090;51.512;11.332;2023-02-19T06:55:56;7.15;;;1.92;;
64674;SDS011;51090;51.512;11.332;2023-02-19T06:58:31;7.63;;;1.90;;
64674;SDS011;51090;51.512;11.332;2023-02-19T07:00:58;6.22;;;2.08;;
64674;SDS011;51090;51.512;11.332;2023-02-19T07:03:24;3.55;;;1.60;;
64674;SDS011;51090;51.512;11.332;2023-02-19T07:05:50;4.40;;;1.80;;
64674;SDS011;51090;51.512;11.332;2023-02-19T07:08:16;6.38;;;1.92;;
64674;SDS011;51090;51.512;11.332;2023-02-19T07:10:42;6.72;;;2.35;;
64674;SDS011;51090;51.512;11.332;2023-02-19T07:13:09;6.50;;;2.50;;
64674;SDS011;51090;51.512;11.332;2023-02-19T07:15:35;5.68;;;2.42;;
64674;SDS011;51090;51.512;11.332;2023-02-19T07:18:00;6.82;;;2.83;;
64674;SDS011;51090;51.512;11.332;2023-02-19T07:20:26;8.55;;;2.85;;
64674;SDS011;51090;51.512;11.332;2023-02-19T07:22:52;6.07;;;2.33;;
64674;SDS011;51090;51.512;11.332;2023-02-19T07:25:18;5.28;;;2.25;;
64674;SDS011;51090;51.512;11.332;2023-02-19T07:27:43;4.90;;;2.15;;
64674;SDS011;51090;51.512;11.332;2023-02-19T07:30:09;6.10;;;2.15;;
64674;SDS011;51090;51.512;11.332;2023-02-19T07:32:35;5.22;;;1.98;;
64674;SDS011;51090;51.512;11.332;2023-02-19T07:35:05;3.22;;;1.67;;
64674;SDS011;51090;51.512;11.332;2023-02-19T07:37:31;3.28;;;1.40;;
64674;SDS011;51090;51.512;11.332;2023-02-19T07:39:57;3.38;;;1.30;;
64674;SDS011;51090;51.512;11.332;2023-02-19T07:42:23;4.07;;;1.48;;
64674;SDS011;51090;51.512;11.332;2023-02-19T07:44:48;3.65;;;1.55;;
64674;SDS011;51090;51.512;11.332;2023-02-19T07:47:14;4.85;;;1.67;;
64674;SDS011;51090;51.512;11.332;2023-02-19T07:49:40;2.72;;;1.10;;
64674;SDS011;51090;51.512;11.332;2023-02-19T07:52:05;3.60;;;1.30;;
64674;SDS011;51090;51.512;11.332;2023-02-19T07:54:34;1.88;;;0.95;;
64674;SDS011;51090;51.512;11.332;2023-02-19T07:57:00;3.83;;;1.00;;
64674;SDS011;51090;51.512;11.332;2023-02-19T07:59:25;1.95;;;0.95;;
64674;SDS011;51090;51.512;11.332;2023-02-19T08:01:51;3.85;;;1.00;;
64674;SDS011;51090;51.512;11.332;2023-02-19T08:04:35;3.92;;;1.52;;
64674;SDS011;51090;51.512;11.332;2023-02-19T08:07:01;3.25;;;1.48;;
64674;SDS011;51090;51.512;11.332;2023-02-19T08:09:29;4.00;;;1.58;;
64674;SDS011;51090;51.512;11.332;2023-02-19T08:11:55;4.00;;;1.65;;
64674;SDS011;51090;51.512;11.332;2023-02-19T08:14:39;5.95;;;2.17;;
64674;SDS011;51090;51.512;11.332;2023-02-19T08:17:05;2.92;;;1.48;;
64674;SDS011;51090;51.512;11.332;2023-02-19T08:19:31;5.47;;;2.00;;
64674;SDS011;51090;51.512;11.332;2023-02-19T08:21:56;3.20;;;1.48;;
64674;SDS011;51090;51.512;11.332;2023-02-19T08:24:22;4.43;;;1.80;;
64674;SDS011;51090;51.512;11.332;2023-02-19T08:26:48;2.85;;;1.08;;
64674;SDS011;51090;51.512;11.332;2023-02-19T08:29:14;2.35;;;1.10;;
64674;SDS011;51090;51.512;11.332;2023-02-19T08:31:39;1.70;;;0.90;;
64674;SDS011;51090;51.512;11.332;2023-02-19T08:34:05;1.75;;;0.80;;
64674;SDS011;51090;51.512;11.332;2023-02-19T08:36:31;0.80;;;0.60;;
64674;SDS011;51090;51.512;11.332;2023-02-19T08:38:57;1.30;;;0.68;;
64674;SDS011;51090;51.512;11.332;2023-02-19T08:41:22;1.00;;;0.40;;
64674;SDS011;51090;51.512;11.332;2023-02-19T08:43:48;0.55;;;0.40;;
64674;SDS011;51090;51.512;11.332;2023-02-19T08:46:14;0.47;;;0.32;;
64674;SDS011;51090;51.512;11.332;2023-02-19T08:48:40;0.60;;;0.30;;
64674;SDS011;51090;51.512;11.332;2023-02-19T08:51:06;0.82;;;0.30;;
64674;SDS011;51090;51.512;11.332;2023-02-19T08:53:36;1.58;;;0.38;;
64674;SDS011;51090;51.512;11.332;2023-02-19T08:56:04;0.85;;;0.40;;
64674;SDS011;51090;51.512;11.332;2023-02-19T08:58:37;0.63;;;0.50;;
64674;SDS011;51090;51.512;11.332;2023-02-19T09:01:08;0.30;;;0.22;;
64674;SDS011;51090;51.512;11.332;2023-02-19T09:03:40;0.35;;;0.30;;
64674;SDS011;51090;51.512;11.332;2023-02-19T09:06:06;0.35;;;0.20;;
64674;SDS011;51090;51.512;11.332;2023-02-19T09:08:41;0.45;;;0.40;;
64674;SDS011;51090;51.512;11.332;2023-02-19T09:11:06;0.40;;;0.40;;
64674;SDS011;51090;51.512;11.332;2023-02-19T09:13:32;1.58;;;0.47;;
64674;SDS011;51090;51.512;11.332;2023-02-19T09:15:58;0.35;;;0.30;;
64674;SDS011;51090;51.512;11.332;2023-02-19T09:18:24;0.43;;;0.30;;
64674;SDS011;51090;51.512;11.332;2023-02-19T09:20:50;0.70;;;0.40;;
64674;SDS011;51090;51.512;11.332;2023-02-19T09:23:15;1.20;;;0.30;;
64674;SDS011;51090;51.512;11.332;2023-02-19T09:25:41;1.38;;;0.40;;
64674;SDS011;51090;51.512;11.332;2023-02-19T09:28:07;0.35;;;0.30;;
64674;SDS011;51090;51.512;11.332;2023-02-19T09:30:33;0.20;;;0.20;;
64674;SDS011;51090;51.512;11.332;2023-02-19T09:32:58;0.20;;;0.20;;
64674;SDS011;51090;51.512;11.332;2023-02-19T09:35:24;0.45;;;0.30;;
64674;SDS011;51090;51.512;11.332;2023-02-19T09:37:50;1.10;;;0.28;;
64674;SDS011;51090;51.512;11.332;2023-02-19T09:40:15;0.55;;;0.20;;
64674;SDS011;51090;51.512;11.332;2023-02-19T09:42:45;0.45;;;0.20;;
64674;SDS011;51090;51.512;11.332;2023-02-19T09:45:17;0.10;;;0.10;;
64674;SDS011;51090;51.512;11.332;2023-02-19T09:47:47;0.73;;;0.20;;
64674;SDS011;51090;51.512;11.332;2023-02-19T09:50:19;0.47;;;0.10;;
64674;SDS011;51090;51.512;11.332;2023-02-19T09:52:52;0.65;;;0.30;;
64674;SDS011;51090;51.512;11.332;2023-02-19T09:55:33;1.38;;;0.52;;
64674;SDS011;51090;51.512;11.332;2023-02-19T10:00:55;0.68;;;0.30;;
64674;SDS011;51090;51.512;11.332;2023-02-19T10:03:25;0.60;;;0.30;;
64674;SDS011;51090;51.512;11.332;2023-02-19T10:06:00;0.43;;;0.20;;
64674;SDS011;51090;51.512;11.332;2023-02-19T10:08:38;0.63;;;0.10;;
64674;SDS011;51090;51.512;11.332;2023-02-19T10:11:05;0.75;;;0.20;;
64674;SDS011;51090;51.512;11.332;2023-02-19T10:13:36;1.15;;;0.40;;
64674;SDS011;51090;51.512;11.332;2023-02-19T10:16:14;0.80;;;0.30;;
64674;SDS011;51090;51.512;11.332;2023-02-19T10:18:49;0.60;;;0.30;;
64674;SDS011;51090;51.512;11.332;2023-02-19T10:21:19;1.10;;;0.40;;
64674;SDS011;51090;51.512;11.332;2023-02-19T10:24:00;0.50;;;0.30;;
64674;SDS011;51090;51.512;11.332;2023-02-19T10:26:29;0.57;;;0.22;;
64674;SDS011;51090;51.512;11.332;2023-02-19T10:29:01;1.15;;;0.20;;
64674;SDS011;51090;51.512;11.332;2023-02-19T10:31:31;0.75;;;0.28;;
64674;SDS011;51090;51.512;11.332;2023-02-19T10:33:58;2.13;;;0.35;;
64674;SDS011;51090;51.512;11.332;2023-02-19T10:38:58;0.45;;;0.30;;
64674;SDS011;51090;51.512;11.332;2023-02-19T10:41:26;2.47;;;0.30;;
64674;SDS011;51090;51.512;11.332;2023-02-19T10:44:04;2.58;;;0.57;;
64674;SDS011;51090;51.512;11.332;2023-02-19T10:46:44;3.15;;;0.88;;
64674;SDS011;51090;51.512;11.332;2023-02-19T10:51:57;1.00;;;0.50;;
64674;SDS011;51090;51.512;11.332;2023-02-19T10:54:27;2.95;;;0.40;;
64674;SDS011;51090;51.512;11.332;2023-02-19T10:57:14;1.27;;;0.40;;
64674;SDS011;51090;51.512;11.332;2023-02-19T10:59:53;0.57;;;0.17;;
64674;SDS011;51090;51.512;11.332;2023-02-19T11:02:21;2.33;;;0.68;;
64674;SDS011;51090;51.512;11.332;2023-02-19T11:05:00;2.80;;;0.50;;
64674;SDS011;51090;51.512;11.332;2023-02-19T11:07:33;3.22;;;0.50;;
64674;SDS011;51090;51.512;11.332;2023-02-19T11:10:01;3.75;;;0.75;;
64674;SDS011;51090;51.512;11.332;2023-02-19T11:12:30;1.83;;;0.50;;
64674;SDS011;51090;51.512;11.332;2023-02-19T11:15:12;2.38;;;0.38;;
64674;SDS011;51090;51.512;11.332;2023-02-19T11:17:53;1.02;;;0.50;;
64674;SDS011;51090;51.512;11.332;2023-02-19T11:20:31;1.00;;;0.30;;
64674;SDS011;51090;51.512;11.332;2023-02-19T11:23:04;1.42;;;0.60;;
64674;SDS011;51090;51.512;11.332;2023-02-19T11:25:44;2.58;;;0.50;;
64674;SDS011;51090;51.512;11.332;2023-02-19T11:31:11;1.08;;;0.55;;
64674;SDS011;51090;51.512;11.332;2023-02-19T11:33:54;0.10;;;0.10;;
64674;SDS011;51090;51.512;11.332;2023-02-19T11:36:28;3.22;;;0.50;;
64674;SDS011;51090;51.512;11.332;2023-02-19T11:45:06;1.05;;;0.40;;
64674;SDS011;51090;51.512;11.332;2023-02-19T11:48:33;1.13;;;0.30;;
64674;SDS011;51090;51.512;11.332;2023-02-19T11:51:30;4.90;;;0.95;;
64674;SDS011;51090;51.512;11.332;2023-02-19T11:54:09;1.42;;;0.40;;
64674;SDS011;51090;51.512;11.332;2023-02-19T11:57:19;4.68;;;0.30;;
64674;SDS011;51090;51.512;11.332;2023-02-19T11:59:54;1.67;;;0.45;;
64674;SDS011;51090;51.512;11.332;2023-02-19T12:02:53;1.60;;;0.40;;
64674;SDS011;51090;51.512;11.332;2023-02-19T12:15:18;2.13;;;0.40;;
64674;SDS011;51090;51.512;11.332;2023-02-19T12:17:46;1.65;;;0.30;;
64674;SDS011;51090;51.512;11.332;2023-02-19T12:20:39;1.63;;;0.30;;
64674;SDS011;51090;51.512;11.332;2023-02-19T12:26:19;2.30;;;0.80;;
64674;SDS011;51090;51.512;11.332;2023-02-19T12:32:13;2.85;;;0.57;;
64674;SDS011;51090;51.512;11.332;2023-02-19T12:35:01;3.83;;;0.60;;
64674;SDS011;51090;51.512;11.332;2023-02-19T12:38:01;2.88;;;0.50;;
64674;SDS011;51090;51.512;11.332;2023-02-19T12:41:01;2.40;;;0.50;;
64674;SDS011;51090;51.512;11.332;2023-02-19T12:44:00;4.03;;;0.52;;
64674;SDS011;51090;51.512;11.332;2023-02-19T12:46:41;4.95;;;0.70;;
64674;SDS011;51090;51.512;11.332;2023-02-19T12:49:24;2.90;;;0.70;;
64674;SDS011;51090;51.512;11.332;2023-02-19T12:54:50;2.25;;;0.40;;
64674;SDS011;51090;51.512;11.332;2023-02-19T12:57:28;6.07;;;0.45;;
64674;SDS011;51090;51.512;11.332;2023-02-19T13:00:59;4.38;;;0.68;;
64674;SDS011;51090;51.512;11.332;2023-02-19T13:08:13;3.33;;;0.60;;
64674;SDS011;51090;51.512;11.332;2023-02-19T13:11:31;2.78;;;0.50;;
64674;SDS011;51090;51.512;11.332;2023-02-19T13:14:19;3.70;;;0.57;;
64674;SDS011;51090;51.512;11.332;2023-02-19T13:20:24;2.83;;;0.30;;
64674;SDS011;51090;51.512;11.332;2023-02-19T13:23:06;2.97;;;0.38;;
64674;SDS011;51090;51.512;11.332;2023-02-19T13:37:48;0.55;;;0.30;;
64674;SDS011;51090;51.512;11.332;2023-02-19T13:40:30;1.83;;;0.38;;
64674;SDS011;51090;51.512;11.332;2023-02-19T13:43:05;0.63;;;0.30;;
64674;SDS011;51090;51.512;11.332;2023-02-19T13:45:47;0.57;;;0.30;;
64674;SDS011;51090;51.512;11.332;2023-02-19T13:48:31;2.10;;;0.38;;
64674;SDS011;51090;51.512;11.332;2023-02-19T14:14:44;1.63;;;0.40;;
64674;SDS011;51090;51.512;11.332;2023-02-19T14:17:27;3.55;;;0.60;;
64674;SDS011;51090;51.512;11.332;2023-02-19T14:23:00;2.05;;;0.40;;
64674;SDS011;51090;51.512;11.332;2023-02-19T14:25:41;1.00;;;0.40;;
64674;SDS011;51090;51.512;11.332;2023-02-19T14:28:27;3.03;;;0.68;;
64674;SDS011;51090;51.512;11.332;2023-02-19T14:31:17;4.18;;;0.63;;
64674;SDS011;51090;51.512;11.332;2023-02-19T14:33:54;3.00;;;0.88;;
64674;SDS011;51090;51.512;11.332;2023-02-19T14:36:32;0.80;;;0.43;;
64674;SDS011;51090;51.512;11.332;2023-02-19T14:42:05;2.80;;;0.75;;
64674;SDS011;51090;51.512;11.332;2023-02-19T14:45:01;1.20;;;0.50;;
64674;SDS011;51090;51.512;11.332;2023-02-19T14:47:29;3.00;;;0.98;;
64674;SDS011;51090;51.512;11.332;2023-02-19T14:50:00;2.60;;;0.70;;
64674;SDS011;51090;51.512;11.332;2023-02-19T14:52:35;2.05;;;0.45;;
64674;SDS011;51090;51.512;11.332;2023-02-19T14:58:20;2.00;;;0.60;;
64674;SDS011;51090;51.512;11.332;2023-02-19T15:00:56;3.22;;;0.50;;
64674;SDS011;51090;51.512;11.332;2023-02-19T15:03:26;1.17;;;0.50;;
64674;SDS011;51090;51.512;11.332;2023-02-19T15:06:09;2.67;;;0.30;;
64674;SDS011;51090;51.512;11.332;2023-02-19T15:08:43;1.85;;;0.50;;
64674;SDS011;51090;51.512;11.332;2023-02-19T15:11:14;2.80;;;0.50;;
64674;SDS011;51090;51.512;11.332;2023-02-19T15:13:55;3.35;;;0.57;;
64674;SDS011;51090;51.512;11.332;2023-02-19T15:16:32;1.85;;;0.40;;
64674;SDS011;51090;51.512;11.332;2023-02-19T15:19:00;2.30;;;0.40;;
64674;SDS011;51090;51.512;11.332;2023-02-19T15:21:33;3.83;;;0.52;;
64674;SDS011;51090;51.512;11.332;2023-02-19T15:24:04;1.83;;;0.75;;
64674;SDS011;51090;51.512;11.332;2023-02-19T15:26:34;0.60;;;0.32;;
64674;SDS011;51090;51.512;11.332;2023-02-19T15:29:09;1.67;;;0.50;;
64674;SDS011;51090;51.512;11.332;2023-02-19T15:31:44;2.35;;;0.80;;
64674;SDS011;51090;51.512;11.332;2023-02-19T15:34:19;2.88;;;0.65;;
64674;SDS011;51090;51.512;11.332;2023-02-19T15:36:56;2.28;;;0.50;;
64674;SDS011;51090;51.512;11.332;2023-02-19T15:39:32;2.45;;;0.57;;
64674;SDS011;51090;51.512;11.332;2023-02-19T15:42:02;0.80;;;0.50;;
64674;SDS011;51090;51.512;11.332;2023-02-19T15:50:19;0.90;;;0.35;;
64674;SDS011;51090;51.512;11.332;2023-02-19T15:52:57;2.70;;;0.50;;
64674;SDS011;51090;51.512;11.332;2023-02-19T16:01:05;2.72;;;0.80;;
64674;SDS011;51090;51.512;11.332;2023-02-19T16:03:52;1.15;;;0.82;;
64674;SDS011;51090;51.512;11.332;2023-02-19T16:06:21;4.05;;;0.50;;
64674;SDS011;51090;51.512;11.332;2023-02-19T16:09:04;3.55;;;0.60;;
64674;SDS011;51090;51.512;11.332;2023-02-19T16:11:47;2.60;;;0.60;;
64674;SDS011;51090;51.512;11.332;2023-02-19T16:14:20;2.28;;;0.65;;
64674;SDS011;51090;51.512;11.332;2023-02-19T16:19:46;3.22;;;0.50;;
64674;SDS011;51090;51.512;11.332;2023-02-19T16:22:23;1.75;;;0.60;;
64674;SDS011;51090;51.512;11.332;2023-02-19T16:25:00;1.77;;;0.60;;
64674;SDS011;51090;51.512;11.332;2023-02-19T16:27:40;4.22;;;0.80;;
64674;SDS011;51090;51.512;11.332;2023-02-19T16:32:42;2.10;;;0.90;;
64674;SDS011;51090;51.512;11.332;2023-02-19T16:38:11;4.57;;;1.58;;
64674;SDS011;51090;51.512;11.332;2023-02-19T16:43:41;6.82;;;2.08;;
64674;SDS011;51090;51.512;11.332;2023-02-19T16:46:08;4.65;;;1.67;;
64674;SDS011;51090;51.512;11.332;2023-02-19T16:48:36;5.15;;;1.70;;
64674;SDS011;51090;51.512;11.332;2023-02-19T16:51:04;7.00;;;1.90;;
64674;SDS011;51090;51.512;11.332;2023-02-19T16:53:31;6.63;;;2.08;;
64674;SDS011;51090;51.512;11.332;2023-02-19T16:55:57;5.38;;;2.08;;
64674;SDS011;51090;51.512;11.332;2023-02-19T16:58:23;6.90;;;2.30;;
64674;SDS011;51090;51.512;11.332;2023-02-19T17:00:50;7.65;;;3.20;;
64674;SDS011;51090;51.512;11.332;2023-02-19T17:03:17;8.02;;;2.47;;
64674;SDS011;51090;51.512;11.332;2023-02-19T17:05:46;11.75;;;3.13;;
64674;SDS011;51090;51.512;11.332;2023-02-19T17:11:03;7.57;;;2.60;;
64674;SDS011;51090;51.512;11.332;2023-02-19T17:13:33;5.55;;;2.25;;
64674;SDS011;51090;51.512;11.332;2023-02-19T17:15:59;7.30;;;2.45;;
64674;SDS011;51090;51.512;11.332;2023-02-19T17:18:25;10.43;;;3.65;;
64674;SDS011;51090;51.512;11.332;2023-02-19T17:20:55;8.35;;;3.75;;
64674;SDS011;51090;51.512;11.332;2023-02-19T17:23:40;10.05;;;4.30;;
64674;SDS011;51090;51.512;11.332;2023-02-19T17:26:07;11.10;;;5.05;;
64674;SDS011;51090;51.512;11.332;2023-02-19T17:28:40;12.20;;;4.28;;
64674;SDS011;51090;51.512;11.332;2023-02-19T17:31:07;13.50;;;4.15;;
64674;SDS011;51090;51.512;11.332;2023-02-19T17:33:35;9.75;;;4.05;;
64674;SDS011;51090;51.512;11.332;2023-02-19T17:36:02;9.60;;;3.92;;
64674;SDS011;51090;51.512;11.332;2023-02-19T17:38:28;12.18;;;4.80;;
64674;SDS011;51090;51.512;11.332;2023-02-19T17:40:54;13.65;;;4.38;;